sensor_id;sensor_type;location;lat;lon;timestamp;pressure;altitude;pressure_sealevel;temperature;humidity
71457;BME280;59263;48.160;11.752;2023-02-13T00:01:37;97747.78;;;0.41;100.00
71457;BME280;59263;48.160;11.752;2023-02-13T00:04:04;97731.75;;;0.37;100.00
71457;BME280;59263;48.160;11.752;2023-02-13T00:06:30;97735.78;;;0.46;100.00
71457;BME280;59263;48.160;11.752;2023-02-13T00:08:59;97740.75;;;0.51;100.00
71457;BME280;59263;48.160;11.752;2023-02-13T00:11:27;97710.72;;;0.28;100.00
71457;BME280;59263;48.160;11.752;2023-02-13T00:13:57;97740.88;;;0.46;100.00
71457;BME280;59263;48.160;11.752;2023-02-13T00:16:24;97769.28;;;0.66;100.00
71457;BME280;59263;48.160;11.752;2023-02-13T00:18:50;97695.50;;;0.24;100.00
71457;BME280;59263;48.160;11.752;2023-02-13T00:21:18;97725.66;;;0.43;100.00
71457;BME280;59263;48.160;11.752;2023-02-13T00:23:45;97715.59;;;0.37;100.00
71457;BME280;59263;48.160;11.752;2023-02-13T00:26:13;97700.47;;;0.31;100.00
71457;BME280;59263;48.160;11.752;2023-02-13T00:28:39;97733.91;;;0.54;100.00
71457;BME280;59263;48.160;11.752;2023-02-13T00:31:10;97705.50;;;0.34;100.00
71457;BME280;59263;48.160;11.752;2023-02-13T00:33:39;97713.81;;;0.42;100.00
71457;BME280;59263;48.160;11.752;2023-02-13T00:36:12;97727.25;;;0.48;100.00
71457;BME280;59263;48.160;11.752;2023-02-13T00:38:38;97711.25;;;0.42;100.00
71457;BME280;59263;48.160;11.752;2023-02-13T00:41:05;97688.53;;;0.33;100.00
71457;BME280;59263;48.160;11.752;2023-02-13T00:43:30;97751.31;;;0.72;100.00
71457;BME280;59263;48.160;11.752;2023-02-13T00:45:56;97730.34;;;0.61;100.00
71457;BME280;59263;48.160;11.752;2023-02-13T00:48:23;97713.59;;;0.51;100.00
71457;BME280;59263;48.160;11.752;2023-02-13T00:50:49;97747.03;;;0.75;100.00
71457;BME280;59263;48.160;11.752;2023-02-13T00:53:15;97737.69;;;0.73;100.00
71457;BME280;59263;48.160;11.752;2023-02-13T00:55:41;97737.69;;;0.75;100.00
71457;BME280;59263;48.160;11.752;2023-02-13T00:58:07;97725.94;;;0.68;100.00
71457;BME280;59263;48.160;11.752;2023-02-13T01:00:32;97747.03;;;0.75;100.00
71457;BME280;59263;48.160;11.752;2023-02-13T01:02:59;97730.28;;;0.64;100.00
71457;BME280;59263;48.160;11.752;2023-02-13T01:05:24;97723.59;;;0.59;100.00
71457;BME280;59263;48.160;11.752;2023-02-13T01:07:52;97736.25;;;0.63;100.00
71457;BME280;59263;48.160;11.752;2023-02-13T01:10:17;97724.53;;;0.56;100.00
71457;BME280;59263;48.160;11.752;2023-02-13T01:12:42;97720.22;;;0.58;100.00
71457;BME280;59263;48.160;11.752;2023-02-13T01:15:08;97737.84;;;0.67;100.00
71457;BME280;59263;48.160;11.752;2023-02-13T01:17:33;97733.59;;;0.66;100.00
71457;BME280;59263;48.160;11.752;2023-02-13T01:19:59;97735.38;;;0.64;100.00
71457;BME280;59263;48.160;11.752;2023-02-13T01:22:24;97721.88;;;0.59;100.00
71457;BME280;59263;48.160;11.752;2023-02-13T01:24:50;97737.84;;;0.67;100.00
71457;BME280;59263;48.160;11.752;2023-02-13T01:27:15;97740.34;;;0.70;100.00
71457;BME280;59263;48.160;11.752;2023-02-13T01:29:40;97731.88;;;0.68;100.00
71457;BME280;59263;48.160;11.752;2023-02-13T01:32:06;97709.25;;;0.55;100.00
71457;BME280;59263;48.160;11.752;2023-02-13T01:34:32;97733.59;;;0.66;100.00
71457;BME280;59263;48.160;11.752;2023-02-13T01:36:58;97708.50;;;0.51;100.00
71457;BME280;59263;48.160;11.752;2023-02-13T01:39:24;97739.56;;;0.67;100.00
71457;BME280;59263;48.160;11.752;2023-02-13T01:41:49;97722.75;;;0.58;100.00
71457;BME280;59263;48.160;11.752;2023-02-13T01:44:50;97733.66;;;0.65;100.00
71457;BME280;59263;48.160;11.752;2023-02-13T01:47:21;97733.78;;;0.60;100.00
71457;BME280;59263;48.160;11.752;2023-02-13T01:49:48;97706.06;;;0.46;100.00
71457;BME280;59263;48.160;11.752;2023-02-13T01:52:15;97732.06;;;0.59;100.00
71457;BME280;59263;48.160;11.752;2023-02-13T01:54:41;97716.19;;;0.48;100.00
71457;BME280;59263;48.160;11.752;2023-02-13T01:57:11;97708.59;;;0.46;100.00
71457;BME280;59263;48.160;11.752;2023-02-13T01:59:44;97723.66;;;0.57;100.00
71457;BME280;59263;48.160;11.752;2023-02-13T02:02:12;97725.38;;;0.55;100.00
71457;BME280;59263;48.160;11.752;2023-02-13T02:04:39;97723.72;;;0.54;100.00
71457;BME280;59263;48.160;11.752;2023-02-13T02:07:16;97723.00;;;0.47;100.00
71457;BME280;59263;48.160;11.752;2023-02-13T02:09:43;97707.09;;;0.38;100.00
71457;BME280;59263;48.160;11.752;2023-02-13T02:14:44;97722.09;;;0.50;100.00
71457;BME280;59263;48.160;11.752;2023-02-13T02:17:10;97718.91;;;0.42;100.00
71457;BME280;59263;48.160;11.752;2023-02-13T02:22:45;97736.66;;;0.43;100.00
71457;BME280;59263;48.160;11.752;2023-02-13T02:36:34;97735.88;;;0.41;100.00
71457;BME280;59263;48.160;11.752;2023-02-13T02:39:13;97738.56;;;0.35;100.00
71457;BME280;59263;48.160;11.752;2023-02-13T02:41:58;97746.31;;;0.31;100.00
71457;BME280;59263;48.160;11.752;2023-02-13T02:44:34;97750.56;;;0.30;100.00
71457;BME280;59263;48.160;11.752;2023-02-13T02:50:01;97739.66;;;0.23;100.00
71457;BME280;59263;48.160;11.752;2023-02-13T02:52:38;97741.44;;;0.18;100.00
71457;BME280;59263;48.160;11.752;2023-02-13T02:58:13;97752.34;;;0.25;100.00
71457;BME280;59263;48.160;11.752;2023-02-13T03:01:00;97751.56;;;0.21;100.00
71457;BME280;59263;48.160;11.752;2023-02-13T03:03:46;97733.06;;;0.13;100.00
71457;BME280;59263;48.160;11.752;2023-02-13T03:09:04;97737.44;;;0.08;100.00
71457;BME280;59263;48.160;11.752;2023-02-13T03:11:54;97745.00;;;0.11;100.00
71457;BME280;59263;48.160;11.752;2023-02-13T03:14:38;97749.31;;;0.08;100.00
71457;BME280;59263;48.160;11.752;2023-02-13T03:17:04;97740.03;;;0.05;100.00
71457;BME280;59263;48.160;11.752;2023-02-13T03:20:14;97742.69;;;-0.01;100.00
71457;BME280;59263;48.160;11.752;2023-02-13T03:23:14;97745.06;;;0.08;100.00
71457;BME280;59263;48.160;11.752;2023-02-13T03:32:06;97735.06;;;-0.01;100.00
71457;BME280;59263;48.160;11.752;2023-02-13T03:34:37;97731.72;;;-0.03;100.00
71457;BME280;59263;48.160;11.752;2023-02-13T03:37:30;97743.50;;;0.01;100.00
71457;BME280;59263;48.160;11.752;2023-02-13T03:40:55;97738.47;;;-0.02;100.00
71457;BME280;59263;48.160;11.752;2023-02-13T03:43:44;97746.84;;;0.03;100.00
71457;BME280;59263;48.160;11.752;2023-02-13T03:46:11;97736.88;;;-0.08;100.00
71457;BME280;59263;48.160;11.752;2023-02-13T03:48:39;97751.16;;;0.01;100.00
71457;BME280;59263;48.160;11.752;2023-02-13T03:51:29;97740.22;;;-0.04;100.00
71457;BME280;59263;48.160;11.752;2023-02-13T03:54:00;97745.28;;;-0.04;100.00
71457;BME280;59263;48.160;11.752;2023-02-13T03:56:28;97743.69;;;-0.08;100.00
71457;BME280;59263;48.160;11.752;2023-02-13T03:59:19;97755.56;;;-0.07;100.00
71457;BME280;59263;48.160;11.752;2023-02-13T04:01:59;97754.69;;;-0.08;100.00
71457;BME280;59263;48.160;11.752;2023-02-13T04:04:56;97753.00;;;-0.07;100.00
71457;BME280;59263;48.160;11.752;2023-02-13T04:07:24;97753.75;;;-0.02;100.00
71457;BME280;59263;48.160;11.752;2023-02-13T04:10:08;97750.28;;;0.02;100.00
71457;BME280;59263;48.160;11.752;2023-02-13T04:12:47;97752.88;;;-0.01;100.00
71457;BME280;59263;48.160;11.752;2023-02-13T04:15:23;97755.41;;;-0.01;100.00
71457;BME280;59263;48.160;11.752;2023-02-13T04:20:34;97729.44;;;-0.17;100.00
71457;BME280;59263;48.160;11.752;2023-02-13T04:23:07;97741.09;;;-0.05;100.00
71457;BME280;59263;48.160;11.752;2023-02-13T04:25:33;97740.34;;;-0.10;100.00
71457;BME280;59263;48.160;11.752;2023-02-13T04:28:00;97745.44;;;-0.10;100.00
71457;BME280;59263;48.160;11.752;2023-02-13T04:30:25;97742.78;;;-0.06;100.00
71457;BME280;59263;48.160;11.752;2023-02-13T04:32:50;97741.19;;;-0.11;100.00
71457;BME280;59263;48.160;11.752;2023-02-13T04:35:17;97752.13;;;-0.06;100.00
71457;BME280;59263;48.160;11.752;2023-02-13T04:37:42;97733.59;;;-0.13;100.00
71457;BME280;59263;48.160;11.752;2023-02-13T04:40:08;97745.28;;;-0.04;100.00
71457;BME280;59263;48.160;11.752;2023-02-13T04:42:34;97728.66;;;-0.20;100.00
71457;BME280;59263;48.160;11.752;2023-02-13T04:44:59;97752.13;;;-0.06;100.00
71457;BME280;59263;48.160;11.752;2023-02-13T04:47:24;97736.16;;;-0.13;100.00
71457;BME280;59263;48.160;11.752;2023-02-13T04:49:50;97745.38;;;-0.07;100.00
71457;BME280;59263;48.160;11.752;2023-02-13T04:52:15;97726.84;;;-0.15;100.00
71457;BME280;59263;48.160;11.752;2023-02-13T04:54:40;97724.25;;;-0.11;100.00
71457;BME280;59263;48.160;11.752;2023-02-13T04:57:06;97738.59;;;-0.08;100.00
71457;BME280;59263;48.160;11.752;2023-02-13T04:59:31;97728.47;;;-0.11;100.00
71457;BME280;59263;48.160;11.752;2023-02-13T05:01:57;97745.41;;;-0.09;100.00
71457;BME280;59263;48.160;11.752;2023-02-13T05:04:23;97738.59;;;-0.08;100.00
71457;BME280;59263;48.160;11.752;2023-02-13T05:06:49;97741.91;;;-0.03;100.00
71457;BME280;59263;48.160;11.752;2023-02-13T05:09:15;97743.69;;;-0.08;100.00
71457;BME280;59263;48.160;11.752;2023-02-13T05:11:40;97732.88;;;-0.18;100.00
71457;BME280;59263;48.160;11.752;2023-02-13T05:14:05;97746.22;;;-0.08;100.00
71457;BME280;59263;48.160;11.752;2023-02-13T05:16:31;97740.47;;;-0.16;100.00
71457;BME280;59263;48.160;11.752;2023-02-13T05:18:57;97757.19;;;-0.05;100.00
71457;BME280;59263;48.160;11.752;2023-02-13T05:21:22;97727.78;;;-0.19;100.00
71457;BME280;59263;48.160;11.752;2023-02-13T05:24:06;97753.75;;;-0.02;100.00
71457;BME280;59263;48.160;11.752;2023-02-13T05:26:32;97738.59;;;-0.08;100.00
71457;BME280;59263;48.160;11.752;2023-02-13T05:28:57;97750.31;;;-0.01;100.00
71457;BME280;59263;48.160;11.752;2023-02-13T05:31:41;97739.56;;;-0.14;100.00
71457;BME280;59263;48.160;11.752;2023-02-13T05:34:07;97765.59;;;-0.01;100.00
71457;BME280;59263;48.160;11.752;2023-02-13T05:36:32;97747.06;;;-0.08;100.00
71457;BME280;59263;48.160;11.752;2023-02-13T05:38:58;97758.75;;;0.03;100.00
71457;BME280;59263;48.160;11.752;2023-02-13T05:41:23;97760.41;;;0.05;100.00
71457;BME280;59263;48.160;11.752;2023-02-13T05:43:49;97745.25;;;-0.01;100.00
71457;BME280;59263;48.160;11.752;2023-02-13T05:46:14;97760.41;;;0.05;100.00
71457;BME280;59263;48.160;11.752;2023-02-13T05:48:39;97751.88;;;0.06;100.00
71457;BME280;59263;48.160;11.752;2023-02-13T05:51:05;97736.88;;;-0.06;100.00
71457;BME280;59263;48.160;11.752;2023-02-13T05:53:31;97753.63;;;0.04;100.00
71457;BME280;59263;48.160;11.752;2023-02-13T05:55:59;97736.94;;;-0.09;100.00
71457;BME280;59263;48.160;11.752;2023-02-13T05:58:25;97762.94;;;0.04;100.00
71457;BME280;59263;48.160;11.752;2023-02-13T06:00:55;97740.34;;;-0.10;100.00
71457;BME280;59263;48.160;11.752;2023-02-13T06:03:21;97764.72;;;0.02;100.00
71457;BME280;59263;48.160;11.752;2023-02-13T06:05:46;97763.94;;;-0.02;100.00
71457;BME280;59263;48.160;11.752;2023-02-13T06:08:11;97774.00;;;0.04;100.00
71457;BME280;59263;48.160;11.752;2023-02-13T06:10:37;97777.34;;;0.06;100.00
71457;BME280;59263;48.160;11.752;2023-02-13T06:13:02;97765.53;;;0.02;100.00
71457;BME280;59263;48.160;11.752;2023-02-13T06:15:28;97765.59;;;0.01;100.00
71457;BME280;59263;48.160;11.752;2023-02-13T06:17:53;97770.69;;;-0.01;100.00
71457;BME280;59263;48.160;11.752;2023-02-13T06:20:18;97764.97;;;-0.11;100.00
71457;BME280;59263;48.160;11.752;2023-02-13T06:22:47;97771.72;;;-0.11;100.00
71457;BME280;59263;48.160;11.752;2023-02-13T06:25:13;97779.41;;;-0.13;100.00
71457;BME280;59263;48.160;11.752;2023-02-13T06:27:39;97788.59;;;-0.06;100.00
71457;BME280;59263;48.160;11.752;2023-02-13T06:30:05;97781.06;;;-0.10;100.00
71457;BME280;59263;48.160;11.752;2023-02-13T06:32:30;97799.50;;;-0.01;100.00
71457;BME280;59263;48.160;11.752;2023-02-13T06:34:56;97799.44;;;0.04;100.00
71457;BME280;59263;48.160;11.752;2023-02-13T06:37:21;97796.91;;;0.04;100.00
71457;BME280;59263;48.160;11.752;2023-02-13T06:39:47;97790.22;;;-0.02;100.00
71457;BME280;59263;48.160;11.752;2023-02-13T06:42:12;97796.03;;;0.05;100.00
71457;BME280;59263;48.160;11.752;2023-02-13T06:44:38;97798.56;;;0.05;100.00
71457;BME280;59263;48.160;11.752;2023-02-13T06:47:03;97799.34;;;0.07;100.00
71457;BME280;59263;48.160;11.752;2023-02-13T06:49:29;97782.47;;;0.03;100.00
71457;BME280;59263;48.160;11.752;2023-02-13T06:51:54;97790.09;;;0.05;100.00
71457;BME280;59263;48.160;11.752;2023-02-13T06:54:19;97799.19;;;0.16;100.00
71457;BME280;59263;48.160;11.752;2023-02-13T06:56:45;97791.75;;;0.06;100.00
71457;BME280;59263;48.160;11.752;2023-02-13T06:59:13;97752.44;;;-0.23;100.00
71457;BME280;59263;48.160;11.752;2023-02-13T07:01:38;97749.84;;;-0.20;100.00
71457;BME280;59263;48.160;11.752;2023-02-13T07:04:03;97809.38;;;0.16;100.00
71457;BME280;59263;48.160;11.752;2023-02-13T07:06:29;97757.47;;;-0.18;100.00
71457;BME280;59263;48.160;11.752;2023-02-13T07:08:54;97789.44;;;-0.05;100.00
71457;BME280;59263;48.160;11.752;2023-02-13T07:11:23;97815.34;;;0.15;100.00
71457;BME280;59263;48.160;11.752;2023-02-13T07:13:49;97813.63;;;0.16;100.00
71457;BME280;59263;48.160;11.752;2023-02-13T07:16:14;97807.50;;;0.24;100.00
71457;BME280;59263;48.160;11.752;2023-02-13T07:18:40;97812.50;;;0.31;100.00
71457;BME280;59263;48.160;11.752;2023-02-13T07:21:05;97819.31;;;0.29;100.00
71457;BME280;59263;48.160;11.752;2023-02-13T07:23:31;97805.84;;;0.23;100.00
71457;BME280;59263;48.160;11.752;2023-02-13T07:25:59;97821.91;;;0.26;100.00
71457;BME280;59263;48.160;11.752;2023-02-13T07:28:26;97826.00;;;0.33;100.00
71457;BME280;59263;48.160;11.752;2023-02-13T07:30:51;97838.13;;;0.21;100.00
71457;BME280;59263;48.160;11.752;2023-02-13T07:33:17;97841.44;;;0.27;100.00
71457;BME280;59263;48.160;11.752;2023-02-13T07:35:50;97849.81;;;0.32;100.00
71457;BME280;59263;48.160;11.752;2023-02-13T07:38:16;97845.50;;;0.35;100.00
71457;BME280;59263;48.160;11.752;2023-02-13T07:40:42;97848.91;;;0.33;100.00
71457;BME280;59263;48.160;11.752;2023-02-13T07:43:07;97840.53;;;0.28;100.00
71457;BME280;59263;48.160;11.752;2023-02-13T07:45:32;97853.09;;;0.37;100.00
71457;BME280;59263;48.160;11.752;2023-02-13T07:47:58;97869.03;;;0.46;100.00
71457;BME280;59263;48.160;11.752;2023-02-13T07:50:24;97876.63;;;0.48;100.00
71457;BME280;59263;48.160;11.752;2023-02-13T07:52:58;97872.31;;;0.52;100.00
71457;BME280;59263;48.160;11.752;2023-02-13T07:55:23;97859.63;;;0.50;100.00
71457;BME280;59263;48.160;11.752;2023-02-13T07:57:49;97860.56;;;0.44;100.00
71457;BME280;59263;48.160;11.752;2023-02-13T08:00:15;97842.78;;;0.43;100.00
71457;BME280;59263;48.160;11.752;2023-02-13T08:02:41;97863.00;;;0.51;100.00
71457;BME280;59263;48.160;11.752;2023-02-13T08:05:07;97836.25;;;0.30;100.00
71457;BME280;59263;48.160;11.752;2023-02-13T08:07:33;97860.66;;;0.41;100.00
71457;BME280;59263;48.160;11.752;2023-02-13T08:09:59;97852.03;;;0.47;100.00
71457;BME280;59263;48.160;11.752;2023-02-13T08:12:43;97867.94;;;0.58;100.00
71457;BME280;59263;48.160;11.752;2023-02-13T08:15:14;97856.09;;;0.57;100.00
71457;BME280;59263;48.160;11.752;2023-02-13T08:17:39;97840.84;;;0.54;100.00
71457;BME280;59263;48.160;11.752;2023-02-13T08:20:05;97860.13;;;0.67;100.00
71457;BME280;59263;48.160;11.752;2023-02-13T08:22:38;97865.22;;;0.66;100.00
71457;BME280;59263;48.160;11.752;2023-02-13T08:25:04;97846.69;;;0.59;100.00
71457;BME280;59263;48.160;11.752;2023-02-13T08:27:30;97838.31;;;0.56;100.00
71457;BME280;59263;48.160;11.752;2023-02-13T08:29:56;97847.44;;;0.64;100.00
71457;BME280;59263;48.160;11.752;2023-02-13T08:32:22;97857.53;;;0.70;100.00
71457;BME280;59263;48.160;11.752;2023-02-13T08:34:48;97843.13;;;0.68;100.00
71457;BME280;59263;48.160;11.752;2023-02-13T08:37:13;97806.13;;;0.50;100.00
71457;BME280;59263;48.160;11.752;2023-02-13T08:39:38;97860.75;;;0.79;100.00
71457;BME280;59263;48.160;11.752;2023-02-13T08:42:04;97855.66;;;0.79;100.00
71457;BME280;59263;48.160;11.752;2023-02-13T08:44:29;97847.06;;;0.83;100.00
71457;BME280;59263;48.160;11.752;2023-02-13T08:46:55;97858.81;;;0.90;100.00
71457;BME280;59263;48.160;11.752;2023-02-13T08:49:20;97853.78;;;0.85;100.00
71457;BME280;59263;48.160;11.752;2023-02-13T08:51:46;97843.75;;;0.78;100.00
71457;BME280;59263;48.160;11.752;2023-02-13T08:54:11;97857.19;;;0.86;100.00
71457;BME280;59263;48.160;11.752;2023-02-13T08:56:36;97868.22;;;0.86;100.00
71457;BME280;59263;48.160;11.752;2023-02-13T08:59:02;97875.75;;;0.91;100.00
71457;BME280;59263;48.160;11.752;2023-02-13T09:01:27;97860.59;;;0.85;100.00
71457;BME280;59263;48.160;11.752;2023-02-13T09:03:52;97853.94;;;0.78;100.00
71457;BME280;59263;48.160;11.752;2023-02-13T09:06:18;97863.97;;;0.87;100.00
71457;BME280;59263;48.160;11.752;2023-02-13T09:08:43;97863.91;;;0.90;100.00
71457;BME280;59263;48.160;11.752;2023-02-13T09:11:09;97867.09;;;0.98;100.00
71457;BME280;59263;48.160;11.752;2023-02-13T09:13:35;97860.34;;;0.95;100.00
71457;BME280;59263;48.160;11.752;2023-02-13T09:16:05;97867.78;;;1.06;100.00
71457;BME280;59263;48.160;11.752;2023-02-13T09:18:31;97872.88;;;1.06;100.00
71457;BME280;59263;48.160;11.752;2023-02-13T09:21:07;97876.31;;;1.05;100.00
71457;BME280;59263;48.160;11.752;2023-02-13T09:23:36;97869.75;;;0.93;100.00
71457;BME280;59263;48.160;11.752;2023-02-13T09:26:03;97870.94;;;0.79;100.00
71457;BME280;59263;48.160;11.752;2023-02-13T09:28:31;97862.53;;;0.73;100.00
71457;BME280;59263;48.160;11.752;2023-02-13T09:30:57;97862.72;;;0.64;100.00
71457;BME280;59263;48.160;11.752;2023-02-13T09:33:23;97871.81;;;0.76;100.00
71457;BME280;59263;48.160;11.752;2023-02-13T09:35:49;97881.28;;;0.69;100.00
71457;BME280;59263;48.160;11.752;2023-02-13T09:38:14;97869.75;;;0.53;100.00
71457;BME280;59263;48.160;11.752;2023-02-13T09:40:48;97883.28;;;0.55;100.00
71457;BME280;59263;48.160;11.752;2023-02-13T09:43:30;97870.69;;;0.47;100.00
71457;BME280;59263;48.160;11.752;2023-02-13T09:46:06;97859.50;;;0.56;100.00
71457;BME280;59263;48.160;11.752;2023-02-13T09:48:36;97877.91;;;0.69;100.00
71457;BME280;59263;48.160;11.752;2023-02-13T09:51:03;97883.22;;;0.58;100.00
71457;BME280;59263;48.160;11.752;2023-02-13T09:53:28;97872.69;;;0.75;100.00
71457;BME280;59263;48.160;11.752;2023-02-13T09:58:45;97884.00;;;0.63;100.00
71457;BME280;59263;48.160;11.752;2023-02-13T10:01:20;97889.88;;;0.65;100.00
71457;BME280;59263;48.160;11.752;2023-02-13T10:12:12;97892.13;;;1.19;100.00
71457;BME280;59263;48.160;11.752;2023-02-13T10:15:14;97888.28;;;1.39;100.00
71457;BME280;59263;48.160;11.752;2023-02-13T10:17:44;97878.81;;;1.44;100.00
71457;BME280;59263;48.160;11.752;2023-02-13T10:20:33;97884.75;;;1.44;100.00
71457;BME280;59263;48.160;11.752;2023-02-13T10:23:41;97879.69;;;1.43;100.00
71457;BME280;59263;48.160;11.752;2023-02-13T10:26:12;97875.53;;;1.00;100.00
71457;BME280;59263;48.160;11.752;2023-02-13T10:28:47;97876.63;;;0.48;100.00
71457;BME280;59263;48.160;11.752;2023-02-13T10:31:37;97876.50;;;0.54;100.00
71457;BME280;59263;48.160;11.752;2023-02-13T10:34:05;97872.81;;;0.70;100.00
71457;BME280;59263;48.160;11.752;2023-02-13T10:36:36;97879.31;;;0.84;100.00
71457;BME280;59263;48.160;11.752;2023-02-13T10:39:23;97872.09;;;1.04;100.00
71457;BME280;59263;48.160;11.752;2023-02-13T10:42:04;97872.69;;;1.15;100.00
71457;BME280;59263;48.160;11.752;2023-02-13T10:44:56;97879.28;;;1.24;100.00
71457;BME280;59263;48.160;11.752;2023-02-13T10:58:11;97847.56;;;1.70;100.00
71457;BME280;59263;48.160;11.752;2023-02-13T11:00:48;97846.50;;;1.79;100.00
71457;BME280;59263;48.160;11.752;2023-02-13T11:03:20;97826.50;;;1.62;100.00
71457;BME280;59263;48.160;11.752;2023-02-13T11:05:47;97852.53;;;1.76;100.00
71457;BME280;59263;48.160;11.752;2023-02-13T11:08:21;97840.66;;;1.41;100.00
71457;BME280;59263;48.160;11.752;2023-02-13T11:10:47;97851.44;;;1.52;100.00
71457;BME280;59263;48.160;11.752;2023-02-13T11:13:18;97853.03;;;1.55;100.00
71457;BME280;59263;48.160;11.752;2023-02-13T11:18:27;97846.06;;;1.26;100.00
71457;BME280;59263;48.160;11.752;2023-02-13T11:23:41;97851.75;;;1.37;100.00
71457;BME280;59263;48.160;11.752;2023-02-13T11:26:11;97841.28;;;1.13;100.00
71457;BME280;59263;48.160;11.752;2023-02-13T11:28:52;97838.13;;;1.02;100.00
71457;BME280;59263;48.160;11.752;2023-02-13T11:31:23;97847.50;;;1.00;100.00
71457;BME280;59263;48.160;11.752;2023-02-13T11:33:49;97848.22;;;1.07;100.00
71457;BME280;59263;48.160;11.752;2023-02-13T11:36:23;97844.63;;;1.15;100.00
71457;BME280;59263;48.160;11.752;2023-02-13T11:39:05;97843.03;;;1.11;100.00
71457;BME280;59263;48.160;11.752;2023-02-13T11:41:39;97847.78;;;1.27;100.00
71457;BME280;59263;48.160;11.752;2023-02-13T11:44:27;97828.31;;;1.23;100.00
71457;BME280;59263;48.160;11.752;2023-02-13T11:46:55;97852.28;;;1.51;100.00
71457;BME280;59263;48.160;11.752;2023-02-13T11:49:23;97843.78;;;1.52;100.00
71457;BME280;59263;48.160;11.752;2023-02-13T11:51:51;97845.13;;;1.65;100.00
71457;BME280;59263;48.160;11.752;2023-02-13T11:54:35;97858.19;;;1.87;100.00
71457;BME280;59263;48.160;11.752;2023-02-13T11:59:43;97855.50;;;1.93;100.00
71457;BME280;59263;48.160;11.752;2023-02-13T12:04:45;97837.63;;;1.92;100.00
71457;BME280;59263;48.160;11.752;2023-02-13T12:07:26;97842.88;;;1.87;100.00
71457;BME280;59263;48.160;11.752;2023-02-13T12:10:00;97840.81;;;2.00;100.00
71457;BME280;59263;48.160;11.752;2023-02-13T12:17:56;97828.38;;;1.55;100.00
71457;BME280;59263;48.160;11.752;2023-02-13T12:20:26;97843.66;;;1.55;100.00
71457;BME280;59263;48.160;11.752;2023-02-13T12:25:53;97836.06;;;1.88;100.00
71457;BME280;59263;48.160;11.752;2023-02-13T12:31:27;97826.94;;;2.10;100.00
71457;BME280;59263;48.160;11.752;2023-02-13T12:45:11;97815.13;;;2.06;100.00
71457;BME280;59263;48.160;11.752;2023-02-13T12:48:03;97805.66;;;2.11;100.00
71457;BME280;59263;48.160;11.752;2023-02-13T12:56:17;97805.59;;;2.13;100.00
71457;BME280;59263;48.160;11.752;2023-02-13T13:04:38;97804.34;;;2.28;100.00
71457;BME280;59263;48.160;11.752;2023-02-13T13:12:41;97810.22;;;2.30;100.00
71457;BME280;59263;48.160;11.752;2023-02-13T13:15:23;97807.69;;;1.99;100.00
71457;BME280;59263;48.160;11.752;2023-02-13T13:23:33;97808.09;;;2.14;100.00
71457;BME280;59263;48.160;11.752;2023-02-13T13:28:57;97794.88;;;2.31;100.00
71457;BME280;59263;48.160;11.752;2023-02-13T13:31:25;97802.75;;;2.24;100.00
71457;BME280;59263;48.160;11.752;2023-02-13T13:33:53;97813.97;;;2.18;100.00
71457;BME280;59263;48.160;11.752;2023-02-13T13:36:36;97817.31;;;2.20;100.00
71457;BME280;59263;48.160;11.752;2023-02-13T13:47:47;97813.88;;;2.23;100.00
71457;BME280;59263;48.160;11.752;2023-02-13T13:53:12;97816.56;;;2.16;100.00
71457;BME280;59263;48.160;11.752;2023-02-13T14:03:54;97808.91;;;2.16;100.00
71457;BME280;59263;48.160;11.752;2023-02-13T14:06:25;97798.69;;;2.16;100.00
71457;BME280;59263;48.160;11.752;2023-02-13T14:11:43;97801.50;;;2.07;100.00
71457;BME280;59263;48.160;11.752;2023-02-13T14:16:54;97810.25;;;1.99;100.00
71457;BME280;59263;48.160;11.752;2023-02-13T14:19:39;97798.31;;;1.99;100.00
71457;BME280;59263;48.160;11.752;2023-02-13T14:25:05;97816.72;;;2.10;100.00
71457;BME280;59263;48.160;11.752;2023-02-13T14:27:36;97803.94;;;2.12;100.00
71457;BME280;59263;48.160;11.752;2023-02-13T14:30:04;97795.84;;;1.96;100.00
71457;BME280;59263;48.160;11.752;2023-02-13T14:32:34;97794.84;;;2.02;100.00
71457;BME280;59263;48.160;11.752;2023-02-13T14:35:04;97801.53;;;2.06;100.00
71457;BME280;59263;48.160;11.752;2023-02-13T14:37:34;97781.94;;;2.08;100.00
71457;BME280;59263;48.160;11.752;2023-02-13T14:42:52;97795.88;;;2.26;100.00
71457;BME280;59263;48.160;11.752;2023-02-13T14:45:23;97779.03;;;2.20;100.00
71457;BME280;59263;48.160;11.752;2023-02-13T14:47:53;97784.59;;;2.33;100.00
71457;BME280;59263;48.160;11.752;2023-02-13T14:50:50;97794.75;;;2.36;100.00
71457;BME280;59263;48.160;11.752;2023-02-13T14:53:26;97782.06;;;2.33;100.00
71457;BME280;59263;48.160;11.752;2023-02-13T14:55:56;97784.59;;;2.33;100.00
71457;BME280;59263;48.160;11.752;2023-02-13T14:58:31;97766.94;;;2.27;100.00
71457;BME280;59263;48.160;11.752;2023-02-13T15:01:34;97785.13;;;2.44;100.00
71457;BME280;59263;48.160;11.752;2023-02-13T15:04:10;97785.84;;;2.49;100.00
71457;BME280;59263;48.160;11.752;2023-02-13T15:06:39;97771.50;;;2.45;100.00
71457;BME280;59263;48.160;11.752;2023-02-13T15:09:19;97767.97;;;2.49;100.00
71457;BME280;59263;48.160;11.752;2023-02-13T15:11:46;97772.09;;;2.53;100.00
71457;BME280;59263;48.160;11.752;2023-02-13T15:17:01;97767.75;;;2.27;100.00
71457;BME280;59263;48.160;11.752;2023-02-13T15:19:27;97768.75;;;2.22;100.00
71457;BME280;59263;48.160;11.752;2023-02-13T15:22:00;97780.38;;;2.32;100.00
71457;BME280;59263;48.160;11.752;2023-02-13T15:24:34;97780.44;;;2.30;100.00
71457;BME280;59263;48.160;11.752;2023-02-13T15:27:03;97775.38;;;2.29;100.00
71457;BME280;59263;48.160;11.752;2023-02-13T15:29:29;97774.88;;;2.16;100.00
71457;BME280;59263;48.160;11.752;2023-02-13T15:31:56;97771.75;;;2.06;100.00
71457;BME280;59263;48.160;11.752;2023-02-13T15:34:30;97763.75;;;1.87;100.00